Time;durP1;ratioP1;P1;durP2;ratioP2;P2;SDS_P1;SDS_P2;PMS_P1;PMS_P2;Temp;Humidity;BMP_temperature;BMP_pressure;BME280_temperature;BME280_humidity;BME280_pressure;Samples;Min_cycle;Max_cycle;Signal;HPM_P1;HPM_P2
2022/10/02 00:01:44;;;;;;;;;;;11.80;90.80;;;;;;5039995;28;19974;-65
2022/10/02 00:04:14;;;;;;;;;;;11.80;90.80;;;;;;5041534;28;20390;-65
2022/10/02 00:06:46;;;;;;;;;;;11.80;90.70;;;;;;5039266;28;19933;-64
2022/10/02 00:09:17;;;;;;;;;;;11.80;90.20;;;;;;5033990;28;20000;-66
2022/10/02 00:11:46;;;;;;;;;;;11.80;90.40;;;;;;5035395;28;19929;-67
2022/10/02 00:14:15;;;;;;;;;;;11.90;90.60;;;;;;5035773;28;20014;-66
2022/10/02 00:16:43;;;;;;;;;;;11.90;90.60;;;;;;5036643;28;19933;-65
2022/10/02 00:19:11;;;;;;;;;;;11.90;90.70;;;;;;5033512;28;20004;-65
2022/10/02 00:21:50;;;;;;;;;;;11.90;90.30;;;;;;5038778;28;19929;-66
2022/10/02 00:24:18;;;;;;;;;;;11.90;90.60;;;;;;5040692;28;19933;-64
2022/10/02 00:26:50;;;;;;;;;;;11.90;90.50;;;;;;5032290;28;19929;-65
2022/10/02 00:29:24;;;;;;;;;;;11.90;90.80;;;;;;5036094;28;19925;-65
2022/10/02 00:31:54;;;;;;;;;;;11.90;90.70;;;;;;5036274;28;19978;-65
2022/10/02 00:34:25;;;;;;;;;;;11.90;91.10;;;;;;5043619;28;20396;-66
2022/10/02 00:37:00;;;;;;;;;;;12.00;91.00;;;;;;5042281;28;20368;-67
2022/10/02 00:39:34;;;;;;;;;;;11.90;91.10;;;;;;5043944;28;19964;-66
2022/10/02 00:42:17;;;;;;;;;;;11.90;91.00;;;;;;5041959;28;19936;-66
2022/10/02 00:44:48;;;;;;;;;;;11.90;91.00;;;;;;5043569;28;19929;-66
2022/10/02 00:47:20;;;;;;;;;;;11.90;90.80;;;;;;5003921;28;20410;-65
2022/10/02 00:49:58;;;;;;;;;;;11.90;90.90;;;;;;5017722;28;19929;-64
2022/10/02 00:52:36;;;;;;;;;;;11.90;90.50;;;;;;5011449;28;19933;-67
2022/10/02 00:55:22;;;;;;;;;;;11.80;90.80;;;;;;5021438;28;19933;-67
2022/10/02 00:57:54;;;;;;;;;;;11.90;91.00;;;;;;5020908;28;19925;-67
2022/10/02 01:00:23;;;;;;;;;;;11.90;90.60;;;;;;5011120;28;19963;-66
2022/10/02 01:03:00;;;;;;;;;;;11.90;90.70;;;;;;5011888;28;19984;-67
2022/10/02 01:05:28;;;;;;;;;;;11.90;90.80;;;;;;5017247;28;20363;-67
2022/10/02 01:07:56;;;;;;;;;;;11.90;90.20;;;;;;5011382;28;19932;-67
2022/10/02 01:10:24;;;;;;;;;;;11.90;90.80;;;;;;5015856;28;19928;-67
2022/10/02 01:12:51;;;;;;;;;;;11.90;90.50;;;;;;5019186;28;19929;-66
2022/10/02 01:15:18;;;;;;;;;;;11.90;90.10;;;;;;5009130;28;19940;-67
2022/10/02 01:17:46;;;;;;;;;;;11.90;91.00;;;;;;5015926;28;19929;-66
2022/10/02 01:20:14;;;;;;;;;;;11.90;90.60;;;;;;5021859;28;20417;-67
2022/10/02 01:22:49;;;;;;;;;;;11.90;90.30;;;;;;5019703;28;19932;-66
2022/10/02 01:25:19;;;;;;;;;;;11.90;90.30;;;;;;5023864;28;20555;-67
2022/10/02 01:27:46;;;;;;;;;;;11.90;90.00;;;;;;5023834;28;19976;-65
2022/10/02 01:30:14;;;;;;;;;;;11.90;91.00;;;;;;5022514;28;19940;-66
2022/10/02 01:32:42;;;;;;;;;;;11.90;91.20;;;;;;5024375;28;19940;-66
2022/10/02 01:35:09;;;;;;;;;;;12.00;91.40;;;;;;5018584;28;19929;-65
2022/10/02 01:37:38;;;;;;;;;;;12.00;91.70;;;;;;5018015;28;20051;-65
2022/10/02 01:40:07;;;;;;;;;;;12.00;91.50;;;;;;5019279;28;19953;-67
2022/10/02 01:42:36;;;;;;;;;;;12.00;91.90;;;;;;5025088;28;19929;-67
2022/10/02 01:45:04;;;;;;;;;;;12.00;91.70;;;;;;5024533;28;19952;-67
2022/10/02 01:47:37;;;;;;;;;;;12.00;91.60;;;;;;5021186;28;19952;-67
2022/10/02 01:50:12;;;;;;;;;;;12.00;91.40;;;;;;5020123;28;19940;-67
2022/10/02 01:52:46;;;;;;;;;;;12.00;91.20;;;;;;5030083;28;20456;-66
2022/10/02 01:55:27;;;;;;;;;;;12.00;90.90;;;;;;5024843;28;20010;-66
2022/10/02 01:58:04;;;;;;;;;;;12.00;91.70;;;;;;5021884;28;19942;-66
2022/10/02 02:00:39;;;;;;;;;;;12.10;92.20;;;;;;5017904;28;19929;-67
2022/10/02 02:03:09;;;;;;;;;;;12.10;92.30;;;;;;5024712;28;19934;-65
2022/10/02 02:05:43;;;;;;;;;;;12.10;92.40;;;;;;5026520;28;19967;-66
2022/10/02 02:08:13;;;;;;;;;;;12.10;92.40;;;;;;5025919;28;19935;-66
2022/10/02 02:10:43;;;;;;;;;;;12.10;92.70;;;;;;5029677;28;19929;-67
2022/10/02 02:13:14;;;;;;;;;;;12.10;92.30;;;;;;5022626;28;20020;-66
2022/10/02 02:15:43;;;;;;;;;;;12.10;92.10;;;;;;5018696;28;20057;-67
2022/10/02 02:18:12;;;;;;;;;;;12.10;92.40;;;;;;5023236;28;19936;-67
2022/10/02 02:20:43;;;;;;;;;;;12.10;92.10;;;;;;5025113;28;20275;-65
2022/10/02 02:23:12;;;;;;;;;;;12.10;91.70;;;;;;5027016;28;19935;-66
2022/10/02 02:25:40;;;;;;;;;;;12.10;91.20;;;;;;5034632;28;20286;-66
2022/10/02 02:28:11;;;;;;;;;;;12.10;92.30;;;;;;5021363;28;19925;-66
2022/10/02 02:30:41;;;;;;;;;;;12.10;91.80;;;;;;5018951;28;19934;-66
2022/10/02 02:33:11;;;;;;;;;;;12.10;91.70;;;;;;5018452;28;19925;-66
2022/10/02 02:35:40;;;;;;;;;;;12.10;91.80;;;;;;5025118;28;20290;-65
2022/10/02 02:38:09;;;;;;;;;;;12.10;91.30;;;;;;5026536;28;20270;-65
2022/10/02 02:40:37;;;;;;;;;;;12.10;91.80;;;;;;5017117;28;19929;-64
2022/10/02 02:43:05;;;;;;;;;;;12.10;91.70;;;;;;5018621;28;19971;-66
2022/10/02 02:45:34;;;;;;;;;;;12.20;92.20;;;;;;5022395;28;19925;-66
2022/10/02 02:48:03;;;;;;;;;;;12.20;92.40;;;;;;5032730;28;19929;-66
2022/10/02 02:50:32;;;;;;;;;;;12.20;92.50;;;;;;5043495;28;20353;-66
2022/10/02 02:53:01;;;;;;;;;;;12.20;92.00;;;;;;5041749;28;19929;-66
2022/10/02 02:55:30;;;;;;;;;;;12.20;92.10;;;;;;5039872;28;20391;-67
2022/10/02 02:58:02;;;;;;;;;;;12.20;91.90;;;;;;5047500;28;19925;-70
2022/10/02 03:00:29;;;;;;;;;;;12.20;91.70;;;;;;5034898;28;20359;-66
2022/10/02 03:02:56;;;;;;;;;;;12.20;91.80;;;;;;5040849;28;19980;-67
2022/10/02 03:05:24;;;;;;;;;;;12.20;91.20;;;;;;5025046;28;19994;-67
2022/10/02 03:07:53;;;;;;;;;;;12.20;91.20;;;;;;5019379;28;19925;-64
2022/10/02 03:10:24;;;;;;;;;;;12.20;91.60;;;;;;5018686;28;19929;-67
2022/10/02 03:12:57;;;;;;;;;;;12.20;92.00;;;;;;5022610;28;20398;-66
2022/10/02 03:15:26;;;;;;;;;;;12.20;91.70;;;;;;5036340;28;20335;-65
2022/10/02 03:18:02;;;;;;;;;;;12.20;91.90;;;;;;5036257;28;19925;-64
2022/10/02 03:20:33;;;;;;;;;;;12.20;92.00;;;;;;5040129;28;19936;-66
2022/10/02 03:23:04;;;;;;;;;;;12.20;92.20;;;;;;5040874;28;19933;-65
2022/10/02 03:25:33;;;;;;;;;;;12.20;92.20;;;;;;5043389;28;20397;-66
2022/10/02 03:28:03;;;;;;;;;;;12.20;92.40;;;;;;5039801;28;19983;-66
2022/10/02 03:30:30;;;;;;;;;;;12.30;92.40;;;;;;5039497;28;19931;-64
2022/10/02 03:32:59;;;;;;;;;;;12.30;92.40;;;;;;5044215;28;19930;-66
2022/10/02 03:35:27;;;;;;;;;;;12.30;92.30;;;;;;5037832;28;20329;-67
2022/10/02 03:37:57;;;;;;;;;;;12.20;92.30;;;;;;5038789;28;19929;-67
2022/10/02 03:40:24;;;;;;;;;;;12.20;92.00;;;;;;5035160;28;19969;-65
2022/10/02 03:42:52;;;;;;;;;;;12.30;92.30;;;;;;5042295;28;19925;-66
2022/10/02 03:45:19;;;;;;;;;;;12.30;92.20;;;;;;5038482;28;20465;-64
2022/10/02 03:47:46;;;;;;;;;;;12.30;91.80;;;;;;5039335;28;19933;-65
2022/10/02 03:50:13;;;;;;;;;;;12.20;92.10;;;;;;5041701;28;19929;-65
2022/10/02 03:52:40;;;;;;;;;;;12.30;92.10;;;;;;5042020;28;19932;-65
2022/10/02 03:55:14;;;;;;;;;;;12.30;92.30;;;;;;5035906;28;19935;-65
2022/10/02 03:57:43;;;;;;;;;;;12.30;92.30;;;;;;5046626;28;19947;-66
2022/10/02 04:00:12;;;;;;;;;;;12.30;92.30;;;;;;5041482;28;20433;-66
2022/10/02 04:02:40;;;;;;;;;;;12.30;92.60;;;;;;5042168;28;19928;-65
2022/10/02 04:05:11;;;;;;;;;;;12.30;92.40;;;;;;5042768;28;19929;-66
2022/10/02 04:07:39;;;;;;;;;;;12.30;92.20;;;;;;5040846;28;19929;-64
2022/10/02 04:10:25;;;;;;;;;;;12.30;92.40;;;;;;5043650;28;19929;-65
2022/10/02 04:12:55;;;;;;;;;;;12.30;92.50;;;;;;5043421;28;19999;-65
2022/10/02 04:15:25;;;;;;;;;;;12.40;92.20;;;;;;5037470;28;20020;-65
2022/10/02 04:17:55;;;;;;;;;;;12.40;92.60;;;;;;5037983;28;19936;-65
2022/10/02 04:20:25;;;;;;;;;;;12.40;92.30;;;;;;5044115;28;20396;-65
2022/10/02 04:22:54;;;;;;;;;;;12.40;92.60;;;;;;5042699;28;19932;-65
2022/10/02 04:25:25;;;;;;;;;;;12.40;92.20;;;;;;5041509;28;19979;-66
2022/10/02 04:27:54;;;;;;;;;;;12.40;92.40;;;;;;5041695;28;19925;-65
2022/10/02 04:30:20;;;;;;;;;;;12.30;92.10;;;;;;5040660;28;19924;-66
2022/10/02 04:32:48;;;;;;;;;;;12.40;92.30;;;;;;5040951;28;20386;-66
2022/10/02 04:35:16;;;;;;;;;;;12.40;92.40;;;;;;5036531;28;19972;-64
2022/10/02 04:37:54;;;;;;;;;;;12.40;92.40;;;;;;5042408;28;20044;-67
2022/10/02 04:40:29;;;;;;;;;;;12.40;92.10;;;;;;5044861;28;20383;-65
2022/10/02 04:43:07;;;;;;;;;;;12.30;92.10;;;;;;5044278;28;19932;-68
2022/10/02 04:45:48;;;;;;;;;;;12.30;92.00;;;;;;5031055;28;19970;-66
2022/10/02 04:48:31;;;;;;;;;;;12.30;91.90;;;;;;5045315;28;19979;-67
2022/10/02 04:51:02;;;;;;;;;;;12.30;92.10;;;;;;5041403;28;19925;-69
2022/10/02 04:53:39;;;;;;;;;;;12.40;92.20;;;;;;5042376;28;19987;-67
2022/10/02 04:56:16;;;;;;;;;;;12.40;92.20;;;;;;5042330;28;20375;-64
2022/10/02 04:58:50;;;;;;;;;;;12.40;92.20;;;;;;5047268;28;19931;-67
2022/10/02 05:01:22;;;;;;;;;;;12.40;92.00;;;;;;5039428;28;20292;-67
2022/10/02 05:03:57;;;;;;;;;;;12.40;92.40;;;;;;5046222;28;20374;-65
2022/10/02 05:06:31;;;;;;;;;;;12.40;91.70;;;;;;5021019;28;20399;-67
2022/10/02 05:09:01;;;;;;;;;;;12.40;92.10;;;;;;5023223;28;20386;-63
2022/10/02 05:11:42;;;;;;;;;;;12.40;92.40;;;;;;5025646;28;19935;-63
2022/10/02 05:14:26;;;;;;;;;;;12.40;91.90;;;;;;5026584;28;20397;-68
2022/10/02 05:17:04;;;;;;;;;;;12.40;91.90;;;;;;5025548;28;19940;-65
2022/10/02 05:19:40;;;;;;;;;;;12.40;92.30;;;;;;5017097;28;20299;-66
2022/10/02 05:22:18;;;;;;;;;;;12.40;92.10;;;;;;5043890;28;19933;-68
2022/10/02 05:24:49;;;;;;;;;;;12.40;92.30;;;;;;5043980;28;20394;-64
2022/10/02 05:27:25;;;;;;;;;;;12.50;92.40;;;;;;5041226;28;19936;-66
2022/10/02 05:30:03;;;;;;;;;;;12.40;92.30;;;;;;5038774;28;19937;-66
2022/10/02 05:32:46;;;;;;;;;;;12.40;92.10;;;;;;5039495;28;19925;-66
2022/10/02 05:35:20;;;;;;;;;;;12.40;92.40;;;;;;5045390;28;19925;-67
2022/10/02 05:37:52;;;;;;;;;;;12.50;92.40;;;;;;5047576;28;19929;-65
2022/10/02 05:40:24;;;;;;;;;;;12.50;92.50;;;;;;5041894;28;19929;-65
2022/10/02 05:42:55;;;;;;;;;;;12.50;92.30;;;;;;5043760;28;20032;-64
2022/10/02 05:45:26;;;;;;;;;;;12.50;92.60;;;;;;5043305;28;19979;-67
2022/10/02 05:47:54;;;;;;;;;;;12.50;92.50;;;;;;5040799;28;20397;-64
2022/10/02 05:50:23;;;;;;;;;;;12.50;92.60;;;;;;5035103;28;19936;-66
2022/10/02 05:52:55;;;;;;;;;;;12.50;92.70;;;;;;5046153;28;20049;-66
2022/10/02 05:55:23;;;;;;;;;;;12.50;92.70;;;;;;5038863;28;19924;-65
2022/10/02 05:57:54;;;;;;;;;;;12.50;92.60;;;;;;5047481;28;19933;-66
2022/10/02 06:00:25;;;;;;;;;;;12.60;92.70;;;;;;5040426;28;20382;-65
2022/10/02 06:02:56;;;;;;;;;;;12.60;92.60;;;;;;5042797;28;19931;-65
2022/10/02 06:05:26;;;;;;;;;;;12.60;92.70;;;;;;5024507;28;19925;-64
2022/10/02 06:07:56;;;;;;;;;;;12.60;92.80;;;;;;5018553;28;19935;-68
2022/10/02 06:10:26;;;;;;;;;;;12.60;92.80;;;;;;5009727;28;20366;-64
2022/10/02 06:12:57;;;;;;;;;;;12.60;92.70;;;;;;5035862;28;19933;-65
2022/10/02 06:15:26;;;;;;;;;;;12.60;92.50;;;;;;5043464;28;20353;-65
2022/10/02 06:17:54;;;;;;;;;;;12.60;92.70;;;;;;5030413;28;20010;-66
2022/10/02 06:20:24;;;;;;;;;;;12.60;92.80;;;;;;5031809;28;19929;-65
2022/10/02 06:22:52;;;;;;;;;;;12.70;92.90;;;;;;5034267;28;19936;-64
2022/10/02 06:25:21;;;;;;;;;;;12.70;93.00;;;;;;5038991;28;19931;-65
2022/10/02 06:27:52;;;;;;;;;;;12.60;92.70;;;;;;5041346;28;20368;-64
2022/10/02 06:30:20;;;;;;;;;;;12.70;92.80;;;;;;5026212;28;19991;-65
2022/10/02 06:32:51;;;;;;;;;;;12.70;92.90;;;;;;5043829;28;19924;-65
2022/10/02 06:35:24;;;;;;;;;;;12.70;93.00;;;;;;5041030;28;19928;-64
2022/10/02 06:37:55;;;;;;;;;;;12.70;93.10;;;;;;5037461;28;19924;-64
2022/10/02 06:40:42;;;;;;;;;;;12.70;93.10;;;;;;5037345;28;19924;-64
2022/10/02 06:43:14;;;;;;;;;;;12.70;93.10;;;;;;5046521;28;19929;-64
2022/10/02 06:45:45;;;;;;;;;;;12.70;93.00;;;;;;5040497;28;19924;-65
2022/10/02 06:48:21;;;;;;;;;;;12.70;93.00;;;;;;4977979;28;1780745;-65
2022/10/02 06:50:51;;;;;;;;;;;12.80;93.00;;;;;;5031578;28;19928;-64
2022/10/02 06:53:23;;;;;;;;;;;12.80;93.20;;;;;;5037725;28;19940;-64
2022/10/02 06:55:52;;;;;;;;;;;12.70;93.00;;;;;;5043133;28;19932;-63
2022/10/02 06:58:30;;;;;;;;;;;12.80;93.10;;;;;;5046456;28;19928;-63
2022/10/02 07:01:03;;;;;;;;;;;12.80;93.10;;;;;;5035076;28;19931;-64
2022/10/02 07:03:41;;;;;;;;;;;12.80;93.10;;;;;;5039126;28;19925;-64
2022/10/02 07:06:11;;;;;;;;;;;12.80;93.10;;;;;;5038695;28;19933;-63
2022/10/02 07:08:49;;;;;;;;;;;12.80;93.10;;;;;;5040412;28;19935;-65
2022/10/02 07:11:18;;;;;;;;;;;12.80;93.00;;;;;;5034437;28;19929;-63
2022/10/02 07:14:00;;;;;;;;;;;12.90;92.90;;;;;;5045250;28;19928;-64
2022/10/02 07:16:46;;;;;;;;;;;12.80;92.80;;;;;;5028102;28;19976;-64
2022/10/02 07:19:23;;;;;;;;;;;12.90;92.80;;;;;;5036002;28;20444;-66
2022/10/02 07:21:54;;;;;;;;;;;12.90;93.00;;;;;;5036729;28;20390;-65
2022/10/02 07:24:30;;;;;;;;;;;12.90;93.20;;;;;;5041218;28;19928;-63
2022/10/02 07:27:01;;;;;;;;;;;13.00;93.30;;;;;;5037243;28;19924;-63
2022/10/02 07:29:33;;;;;;;;;;;13.00;93.20;;;;;;5039595;28;19940;-65
2022/10/02 07:32:18;;;;;;;;;;;13.00;93.40;;;;;;5037761;28;20287;-63
2022/10/02 07:34:50;;;;;;;;;;;13.00;93.10;;;;;;5044042;28;20401;-63
2022/10/02 07:37:21;;;;;;;;;;;13.00;93.20;;;;;;5043592;28;21854;-63
2022/10/02 07:40:01;;;;;;;;;;;13.00;93.10;;;;;;5043958;28;19940;-64
2022/10/02 07:42:41;;;;;;;;;;;13.00;93.10;;;;;;5043092;28;22146;-64
2022/10/02 07:45:19;;;;;;;;;;;13.10;93.10;;;;;;5040112;28;19928;-63
2022/10/02 07:47:53;;;;;;;;;;;13.10;93.10;;;;;;5040984;28;20298;-63
2022/10/02 07:50:27;;;;;;;;;;;13.10;93.00;;;;;;5043924;28;19970;-64
2022/10/02 07:52:57;;;;;;;;;;;13.10;93.00;;;;;;5047273;28;19925;-63
2022/10/02 07:55:25;;;;;;;;;;;13.20;93.00;;;;;;5041427;28;19925;-62
2022/10/02 07:57:59;;;;;;;;;;;13.20;93.00;;;;;;5039952;28;19929;-64
2022/10/02 08:00:28;;;;;;;;;;;13.20;92.80;;;;;;5040047;28;20286;-71
2022/10/02 08:02:57;;;;;;;;;;;13.20;92.70;;;;;;5033802;28;19960;-71
2022/10/02 08:05:27;;;;;;;;;;;13.20;92.80;;;;;;5044132;28;20417;-72
2022/10/02 08:07:57;;;;;;;;;;;13.20;92.60;;;;;;5046038;28;19924;-72
2022/10/02 08:10:25;;;;;;;;;;;13.20;92.70;;;;;;5017761;28;19941;-71
2022/10/02 08:12:58;;;;;;;;;;;13.20;92.80;;;;;;5018924;28;19936;-73
2022/10/02 08:15:26;;;;;;;;;;;13.10;92.80;;;;;;5025988;28;19940;-72
2022/10/02 08:17:55;;;;;;;;;;;13.10;92.70;;;;;;5044205;28;19925;-71
2022/10/02 08:20:26;;;;;;;;;;;13.20;92.70;;;;;;5039626;28;19998;-71
2022/10/02 08:22:56;;;;;;;;;;;13.20;92.60;;;;;;5039317;28;20006;-72
2022/10/02 08:25:25;;;;;;;;;;;13.20;92.70;;;;;;5039151;28;20041;-72
2022/10/02 08:27:55;;;;;;;;;;;13.20;92.50;;;;;;5044405;28;19925;-72
2022/10/02 08:30:22;;;;;;;;;;;13.10;92.50;;;;;;5021070;28;19929;-70
2022/10/02 08:32:49;;;;;;;;;;;13.20;92.40;;;;;;5021915;28;19933;-72
2022/10/02 08:35:16;;;;;;;;;;;13.10;92.40;;;;;;5020856;28;19981;-69
2022/10/02 08:37:50;;;;;;;;;;;13.20;92.50;;;;;;5023250;28;20501;-72
2022/10/02 08:40:46;;;;;;;;;;;13.20;92.50;;;;;;5014579;28;19933;-72
2022/10/02 08:43:32;;;;;;;;;;;13.20;92.40;;;;;;5022705;28;19983;-73
2022/10/02 08:46:27;;;;;;;;;;;13.20;92.40;;;;;;5023201;28;19929;-72
2022/10/02 08:49:10;;;;;;;;;;;13.20;92.40;;;;;;5023619;28;20020;-71
2022/10/02 08:51:46;;;;;;;;;;;13.20;92.40;;;;;;5033501;28;19968;-71
2022/10/02 08:54:24;;;;;;;;;;;13.20;92.30;;;;;;5043947;28;19933;-71
2022/10/02 08:57:05;;;;;;;;;;;13.20;92.40;;;;;;5036062;28;19935;-73
2022/10/02 08:59:51;;;;;;;;;;;13.20;92.50;;;;;;5041738;28;19929;-71
2022/10/02 09:02:33;;;;;;;;;;;13.20;92.50;;;;;;5041675;28;20016;-71
2022/10/02 09:05:22;;;;;;;;;;;13.10;92.40;;;;;;5043396;28;19987;-72
2022/10/02 09:08:07;;;;;;;;;;;13.10;92.60;;;;;;5041467;28;19925;-72
2022/10/02 09:10:49;;;;;;;;;;;13.10;92.40;;;;;;5037225;28;19936;-72
2022/10/02 09:13:35;;;;;;;;;;;13.10;92.60;;;;;;5045212;28;20406;-73
2022/10/02 09:16:08;;;;;;;;;;;13.10;92.60;;;;;;5039537;28;19944;-71
2022/10/02 09:18:48;;;;;;;;;;;13.10;92.30;;;;;;5044356;28;19929;-72
2022/10/02 09:21:16;;;;;;;;;;;13.10;92.30;;;;;;5044751;28;19932;-73
2022/10/02 09:23:55;;;;;;;;;;;13.20;92.20;;;;;;5042794;28;19925;-71
2022/10/02 09:26:28;;;;;;;;;;;13.20;92.30;;;;;;5043594;28;19995;-71
2022/10/02 09:29:22;;;;;;;;;;;13.20;92.30;;;;;;5035947;28;19932;-70
2022/10/02 09:32:08;;;;;;;;;;;13.30;92.30;;;;;;5001811;28;19947;-70
2022/10/02 09:35:02;;;;;;;;;;;13.30;92.20;;;;;;5044438;28;19929;-72
2022/10/02 09:37:44;;;;;;;;;;;13.30;92.10;;;;;;4998463;28;19983;-71
2022/10/02 09:40:31;;;;;;;;;;;13.20;91.70;;;;;;5009607;28;19940;-71
2022/10/02 09:43:16;;;;;;;;;;;13.30;92.00;;;;;;5039985;28;20370;-71
2022/10/02 09:46:00;;;;;;;;;;;13.20;91.90;;;;;;5049674;28;19947;-71
2022/10/02 09:48:45;;;;;;;;;;;13.30;92.20;;;;;;5021667;28;20279;-72
2022/10/02 09:51:45;;;;;;;;;;;13.30;92.10;;;;;;5012637;28;19934;-71
2022/10/02 09:54:33;;;;;;;;;;;13.40;91.80;;;;;;4981415;28;19934;-72
2022/10/02 09:57:30;;;;;;;;;;;13.40;92.00;;;;;;4997127;28;20046;-70
2022/10/02 10:00:02;;;;;;;;;;;13.40;91.90;;;;;;4973746;28;20020;-70
2022/10/02 10:03:02;;;;;;;;;;;13.40;91.90;;;;;;5036328;28;19928;-72
2022/10/02 10:05:49;;;;;;;;;;;13.40;91.70;;;;;;5048819;28;19928;-72
2022/10/02 10:08:37;;;;;;;;;;;13.50;91.80;;;;;;5029595;28;20305;-69
2022/10/02 10:11:15;;;;;;;;;;;13.50;91.90;;;;;;5040070;28;20063;-72
2022/10/02 10:13:56;;;;;;;;;;;13.50;91.90;;;;;;5040298;28;19931;-72
2022/10/02 10:16:42;;;;;;;;;;;13.60;91.80;;;;;;5037385;28;19929;-71
2022/10/02 10:19:28;;;;;;;;;;;13.60;91.60;;;;;;5028753;28;19937;-72
2022/10/02 10:22:04;;;;;;;;;;;13.60;91.60;;;;;;5035604;28;20341;-73
2022/10/02 10:25:00;;;;;;;;;;;13.60;91.60;;;;;;5045581;28;19935;-71
2022/10/02 10:27:42;;;;;;;;;;;13.70;91.70;;;;;;4996123;28;20380;-70
2022/10/02 10:30:24;;;;;;;;;;;13.70;91.50;;;;;;5044419;28;19929;-70
2022/10/02 10:33:23;;;;;;;;;;;13.70;91.50;;;;;;5045534;28;20405;-69
2022/10/02 10:36:01;;;;;;;;;;;13.70;91.40;;;;;;5016862;28;19926;-71
2022/10/02 10:38:37;;;;;;;;;;;13.80;91.40;;;;;;5040970;28;19929;-70
2022/10/02 10:41:34;;;;;;;;;;;13.80;91.40;;;;;;5044846;28;20413;-70
2022/10/02 10:44:16;;;;;;;;;;;13.70;91.40;;;;;;5045289;28;20005;-72
2022/10/02 10:47:01;;;;;;;;;;;13.70;91.30;;;;;;5048697;28;19986;-70
2022/10/02 10:49:46;;;;;;;;;;;13.80;91.30;;;;;;5038192;28;19932;-71
2022/10/02 10:52:19;;;;;;;;;;;13.80;91.20;;;;;;5047252;28;19937;-69
2022/10/02 10:54:53;;;;;;;;;;;13.80;91.10;;;;;;5041074;28;19925;-71
2022/10/02 10:57:29;;;;;;;;;;;13.90;91.10;;;;;;5026343;28;19932;-72
2022/10/02 11:00:03;;;;;;;;;;;13.90;91.30;;;;;;5044906;28;19932;-71
2022/10/02 11:02:46;;;;;;;;;;;13.90;91.30;;;;;;5044593;28;19975;-71
2022/10/02 11:05:25;;;;;;;;;;;13.90;91.20;;;;;;5044985;28;19928;-71
2022/10/02 11:08:01;;;;;;;;;;;13.90;91.30;;;;;;5047009;28;20027;-71
2022/10/02 11:10:37;;;;;;;;;;;13.90;91.10;;;;;;5047600;28;19971;-69
2022/10/02 11:13:18;;;;;;;;;;;13.90;91.10;;;;;;5046841;28;19928;-72
2022/10/02 11:15:55;;;;;;;;;;;13.90;91.10;;;;;;5046381;28;19932;-72
2022/10/02 11:18:31;;;;;;;;;;;13.90;91.10;;;;;;5044112;28;19925;-71
2022/10/02 11:21:19;;;;;;;;;;;13.90;91.10;;;;;;5045856;28;19955;-70
2022/10/02 11:23:54;;;;;;;;;;;14.00;91.00;;;;;;5047752;28;20019;-70
2022/10/02 11:26:28;;;;;;;;;;;14.00;91.00;;;;;;5043790;28;20027;-70
2022/10/02 11:29:04;;;;;;;;;;;14.00;90.90;;;;;;5037525;28;19929;-71
2022/10/02 11:31:38;;;;;;;;;;;14.00;91.00;;;;;;5042314;28;19929;-71
2022/10/02 11:34:32;;;;;;;;;;;14.10;91.10;;;;;;5045842;28;19928;-73
2022/10/02 11:37:04;;;;;;;;;;;14.10;91.10;;;;;;5043826;28;19929;-70
2022/10/02 11:39:42;;;;;;;;;;;14.00;90.90;;;;;;5044714;28;19925;-72
2022/10/02 11:42:16;;;;;;;;;;;14.00;90.80;;;;;;5031355;28;20013;-72
2022/10/02 11:44:53;;;;;;;;;;;14.00;90.80;;;;;;5042814;28;19924;-71
2022/10/02 11:47:32;;;;;;;;;;;14.00;91.00;;;;;;5044843;28;19982;-70
2022/10/02 11:50:18;;;;;;;;;;;14.00;91.00;;;;;;5046611;28;19925;-70
2022/10/02 11:52:51;;;;;;;;;;;14.00;90.90;;;;;;5044047;28;19932;-71
2022/10/02 11:55:21;;;;;;;;;;;14.00;91.00;;;;;;5043206;28;19932;-72
2022/10/02 11:57:55;;;;;;;;;;;14.10;91.00;;;;;;5042423;28;20016;-72
2022/10/02 12:00:37;;;;;;;;;;;14.10;91.00;;;;;;5036007;28;19928;-71
2022/10/02 12:03:09;;;;;;;;;;;14.10;90.80;;;;;;5038244;28;19935;-71
2022/10/02 12:05:43;;;;;;;;;;;14.20;90.80;;;;;;5038800;28;19926;-70
2022/10/02 12:08:16;;;;;;;;;;;14.20;90.70;;;;;;5038956;28;20386;-71
2022/10/02 12:10:49;;;;;;;;;;;14.20;90.80;;;;;;5036143;28;19998;-70
2022/10/02 12:13:34;;;;;;;;;;;14.20;90.70;;;;;;5035317;28;19936;-70
2022/10/02 12:16:06;;;;;;;;;;;14.20;90.60;;;;;;5030469;28;19933;-71
2022/10/02 12:18:40;;;;;;;;;;;14.20;90.50;;;;;;5038382;28;19937;-71
2022/10/02 12:27:02;;;;;;;;;;;14.20;90.60;;;;;;5037589;28;19975;-73
2022/10/02 12:29:33;;;;;;;;;;;14.20;90.80;;;;;;5014546;28;19936;-73
2022/10/02 12:32:07;;;;;;;;;;;14.20;90.80;;;;;;5018110;28;19933;-72
2022/10/02 12:34:40;;;;;;;;;;;14.20;90.90;;;;;;5022074;28;19929;-70
2022/10/02 12:37:11;;;;;;;;;;;14.20;90.90;;;;;;5016598;28;19940;-72
2022/10/02 12:39:45;;;;;;;;;;;14.20;91.00;;;;;;5016517;28;20469;-72
2022/10/02 12:42:25;;;;;;;;;;;14.20;90.90;;;;;;5014846;28;20022;-72
2022/10/02 12:45:13;;;;;;;;;;;14.20;90.80;;;;;;5019771;28;19932;-70
2022/10/02 12:47:56;;;;;;;;;;;14.20;90.80;;;;;;5001615;28;19932;-70
2022/10/02 12:50:32;;;;;;;;;;;14.20;90.60;;;;;;5022379;28;19940;-70
2022/10/02 12:53:12;;;;;;;;;;;14.30;90.60;;;;;;5038601;28;19932;-70
2022/10/02 12:55:47;;;;;;;;;;;14.30;90.70;;;;;;5039186;28;19932;-71
2022/10/02 12:58:22;;;;;;;;;;;14.30;90.60;;;;;;5037243;28;19937;-71
2022/10/02 13:01:02;;;;;;;;;;;14.30;90.60;;;;;;5028448;28;19929;-72
2022/10/02 13:03:53;;;;;;;;;;;14.30;90.70;;;;;;5039608;28;19963;-71
2022/10/02 13:06:50;;;;;;;;;;;14.40;90.60;;;;;;5032333;28;19925;-70
2022/10/02 13:09:22;;;;;;;;;;;14.40;90.70;;;;;;5020542;28;19929;-70
2022/10/02 13:11:58;;;;;;;;;;;14.40;90.50;;;;;;5039106;28;19931;-71
2022/10/02 13:14:36;;;;;;;;;;;14.40;90.30;;;;;;5047055;28;20340;-72
2022/10/02 13:17:10;;;;;;;;;;;14.40;90.20;;;;;;5045373;28;20412;-72
2022/10/02 13:19:42;;;;;;;;;;;14.40;90.30;;;;;;5047392;28;19931;-72
2022/10/02 13:22:15;;;;;;;;;;;14.40;90.40;;;;;;5041539;28;20421;-70
2022/10/02 13:24:50;;;;;;;;;;;14.40;90.20;;;;;;5046228;28;19940;-70
2022/10/02 13:27:26;;;;;;;;;;;14.50;90.20;;;;;;5038019;28;19931;-72
2022/10/02 13:30:02;;;;;;;;;;;14.50;90.10;;;;;;5042247;28;19932;-71
2022/10/02 13:32:37;;;;;;;;;;;14.50;89.90;;;;;;5039362;28;19933;-71
2022/10/02 13:35:15;;;;;;;;;;;14.60;89.90;;;;;;5030951;28;20028;-71
2022/10/02 13:37:49;;;;;;;;;;;14.60;90.00;;;;;;5029494;28;22298;-70
2022/10/02 13:40:18;;;;;;;;;;;14.60;90.00;;;;;;5033085;28;20390;-70
2022/10/02 13:42:55;;;;;;;;;;;14.60;89.80;;;;;;5041235;28;20266;-71
2022/10/02 13:45:28;;;;;;;;;;;14.70;89.70;;;;;;5041464;28;20400;-70
2022/10/02 13:47:58;;;;;;;;;;;14.70;89.60;;;;;;5046735;28;19951;-72
2022/10/02 13:50:34;;;;;;;;;;;14.70;89.40;;;;;;5016760;28;20333;-71
2022/10/02 13:53:10;;;;;;;;;;;14.70;89.30;;;;;;5002929;28;19925;-70
2022/10/02 13:55:42;;;;;;;;;;;14.70;89.30;;;;;;5021399;28;20442;-71
2022/10/02 13:58:17;;;;;;;;;;;14.70;89.40;;;;;;5017335;28;20004;-71
2022/10/02 14:00:52;;;;;;;;;;;14.70;89.40;;;;;;5020052;28;19925;-70
2022/10/02 14:03:26;;;;;;;;;;;14.80;89.40;;;;;;5020647;28;19971;-70
2022/10/02 14:05:59;;;;;;;;;;;14.80;89.50;;;;;;5031759;28;19975;-70
2022/10/02 14:08:31;;;;;;;;;;;14.80;89.50;;;;;;5043178;28;20329;-71
2022/10/02 14:11:07;;;;;;;;;;;14.70;89.40;;;;;;5039047;28;20031;-70
2022/10/02 14:13:39;;;;;;;;;;;14.80;89.30;;;;;;5039938;28;20385;-71
2022/10/02 14:16:12;;;;;;;;;;;14.80;89.30;;;;;;5035860;28;19928;-72
2022/10/02 14:18:45;;;;;;;;;;;14.80;89.30;;;;;;5039573;28;19924;-70
2022/10/02 14:21:16;;;;;;;;;;;14.80;89.40;;;;;;5030428;28;20019;-72
2022/10/02 14:23:50;;;;;;;;;;;14.80;89.30;;;;;;5029944;28;19925;-72
2022/10/02 14:26:20;;;;;;;;;;;14.80;89.20;;;;;;5011196;28;20048;-70
2022/10/02 14:28:54;;;;;;;;;;;14.80;89.20;;;;;;5027282;28;20392;-72
2022/10/02 14:31:36;;;;;;;;;;;14.80;89.10;;;;;;5027243;28;20316;-70
2022/10/02 14:34:21;;;;;;;;;;;14.80;89.20;;;;;;5023539;28;19940;-72
2022/10/02 14:36:52;;;;;;;;;;;14.80;89.00;;;;;;5027610;28;20326;-71
2022/10/02 14:39:26;;;;;;;;;;;14.80;89.10;;;;;;5028968;28;19944;-70
2022/10/02 14:42:00;;;;;;;;;;;14.70;89.10;;;;;;5024501;28;19929;-70
2022/10/02 14:44:41;;;;;;;;;;;14.70;89.20;;;;;;5016531;28;19933;-72
2022/10/02 14:47:16;;;;;;;;;;;14.70;89.10;;;;;;5024161;28;19925;-70
2022/10/02 14:49:52;;;;;;;;;;;14.70;89.10;;;;;;5017494;28;19925;-70
2022/10/02 14:52:22;;;;;;;;;;;14.70;89.00;;;;;;5025722;28;20019;-70
2022/10/02 14:55:05;;;;;;;;;;;14.60;89.20;;;;;;5020062;28;19932;-69
2022/10/02 14:57:44;;;;;;;;;;;14.60;89.30;;;;;;5015771;28;19936;-71
2022/10/02 15:00:20;;;;;;;;;;;14.60;89.20;;;;;;5019605;28;19948;-71
2022/10/02 15:03:02;;;;;;;;;;;14.60;89.20;;;;;;5021345;28;19929;-71
2022/10/02 15:05:37;;;;;;;;;;;14.60;89.40;;;;;;5017620;28;20286;-71